createdAt,value
2023-02-22T00:01:50.970Z,10.79
2023-02-22T00:04:54.952Z,10.82
2023-02-22T00:07:58.007Z,10.80
2023-02-22T00:11:03.914Z,10.84
2023-02-22T00:14:06.456Z,10.73
2023-02-22T00:17:09.744Z,10.70
2023-02-22T00:20:14.183Z,10.70
2023-02-22T00:23:21.118Z,10.70
2023-02-22T00:26:23.657Z,10.71
2023-02-22T00:29:26.811Z,10.68
2023-02-22T00:32:29.664Z,10.65
2023-02-22T00:35:32.917Z,10.66
2023-02-22T00:38:35.678Z,10.65
2023-02-22T00:41:38.732Z,10.70
2023-02-22T00:44:41.180Z,10.55
2023-02-22T00:47:45.003Z,10.57
2023-02-22T00:50:50.643Z,10.51
2023-02-22T00:53:53.753Z,10.48
2023-02-22T00:56:58.291Z,10.45
2023-02-22T01:00:11.991Z,10.39
2023-02-22T01:03:17.073Z,10.38
2023-02-22T01:06:21.232Z,10.36
2023-02-22T01:09:23.601Z,10.35
2023-02-22T01:12:28.313Z,10.33
2023-02-22T01:15:30.989Z,10.34
2023-02-22T01:18:36.188Z,10.43
2023-02-22T01:21:40.647Z,10.40
2023-02-22T01:24:43.793Z,10.36
2023-02-22T01:27:46.436Z,10.37
2023-02-22T01:30:49.980Z,10.46
2023-02-22T01:33:52.598Z,10.44
2023-02-22T01:36:56.565Z,10.50
2023-02-22T01:39:58.958Z,10.50
2023-02-22T01:43:23.561Z,10.51
2023-02-22T01:46:27.498Z,10.52
2023-02-22T01:49:42.388Z,10.56
2023-02-22T01:52:44.958Z,10.54
2023-02-22T01:55:48.667Z,10.50
2023-02-22T01:58:57.303Z,10.50
2023-02-22T02:02:00.870Z,10.50
2023-02-22T02:05:08.347Z,10.53
2023-02-22T02:08:22.126Z,10.45
2023-02-22T02:11:26.024Z,10.39
2023-02-22T02:14:32.039Z,10.36
2023-02-22T02:17:37.143Z,10.34
2023-02-22T02:20:42.910Z,10.34
2023-02-22T02:24:03.366Z,10.35
2023-02-22T02:27:17.134Z,10.42
2023-02-22T02:30:36.222Z,10.46
2023-02-22T02:33:59.309Z,10.44
2023-02-22T02:37:16.309Z,10.44
2023-02-22T02:40:32.126Z,10.45
2023-02-22T02:43:53.598Z,10.48
2023-02-22T02:47:02.046Z,10.44
2023-02-22T02:50:25.969Z,10.48
2023-02-22T02:53:39.368Z,10.46
2023-02-22T02:56:45.604Z,10.51
2023-02-22T02:59:48.773Z,10.47
2023-02-22T03:03:17.510Z,10.49
2023-02-22T03:07:02.586Z,10.52
2023-02-22T03:10:30.499Z,10.50
2023-02-22T03:13:40.724Z,10.42
2023-02-22T03:16:52.603Z,10.46
2023-02-22T03:20:02.022Z,10.42
2023-02-22T03:23:15.552Z,10.42
2023-02-22T03:26:28.111Z,10.41
2023-02-22T03:29:35.614Z,10.40
2023-02-22T03:32:42.872Z,10.42
2023-02-22T03:35:56.863Z,10.44
2023-02-22T03:39:04.303Z,10.48
2023-02-22T03:42:17.517Z,10.53
2023-02-22T03:45:24.788Z,10.56
2023-02-22T03:48:49.839Z,10.57
2023-02-22T03:51:53.375Z,10.54
2023-02-22T03:54:56.450Z,10.61
2023-02-22T03:58:03.277Z,10.56
2023-02-22T04:01:06.584Z,10.62
2023-02-22T04:04:09.653Z,10.64
2023-02-22T04:07:13.110Z,10.62
2023-02-22T04:10:17.206Z,10.57
2023-02-22T04:13:20.088Z,10.60
2023-02-22T04:16:23.533Z,10.63
2023-02-22T04:19:26.549Z,10.69
2023-02-22T04:22:30.206Z,10.69
2023-02-22T04:25:32.941Z,10.64
2023-02-22T04:28:40.946Z,10.70
2023-02-22T04:31:43.929Z,10.68
2023-02-22T04:34:47.841Z,10.73
2023-02-22T04:37:50.557Z,10.63
2023-02-22T04:40:55.512Z,10.60
2023-02-22T04:43:58.061Z,10.59
2023-02-22T04:47:01.501Z,10.57
2023-02-22T04:50:09.000Z,10.49
2023-02-22T04:53:12.235Z,10.44
2023-02-22T04:56:18.087Z,10.48
2023-02-22T04:59:21.589Z,10.37
2023-02-22T05:02:28.613Z,10.34
2023-02-22T05:05:31.619Z,10.33
2023-02-22T05:08:34.169Z,10.35
2023-02-22T05:11:37.282Z,10.33
2023-02-22T05:14:39.915Z,10.43
2023-02-22T05:17:43.011Z,10.37
2023-02-22T05:20:45.582Z,10.36
2023-02-22T05:23:48.689Z,10.48
2023-02-22T05:26:54.227Z,10.44
2023-02-22T05:29:57.315Z,10.38
2023-02-22T05:33:00.744Z,10.47
2023-02-22T05:36:03.901Z,10.43
2023-02-22T05:39:06.605Z,10.34
2023-02-22T05:42:09.582Z,10.30
2023-02-22T05:45:16.645Z,10.26
2023-02-22T05:48:22.219Z,10.27
2023-02-22T05:51:25.198Z,10.22
2023-02-22T05:54:28.374Z,10.19
2023-02-22T05:57:31.222Z,10.16
2023-02-22T06:00:34.421Z,10.16
2023-02-22T06:03:37.388Z,10.11
2023-02-22T06:06:40.191Z,10.09
2023-02-22T06:09:43.158Z,10.10
2023-02-22T06:12:47.301Z,10.27
2023-02-22T06:15:50.114Z,10.34
2023-02-22T06:18:53.010Z,10.42
2023-02-22T06:22:00.002Z,10.52
2023-02-22T06:25:04.379Z,10.69
2023-02-22T06:28:10.158Z,10.76
2023-02-22T06:31:13.014Z,10.87
2023-02-22T06:34:16.252Z,10.96
2023-02-22T06:37:19.134Z,10.98
2023-02-22T06:40:21.934Z,11.20
2023-02-22T06:43:25.884Z,11.20
2023-02-22T06:46:28.929Z,11.32
2023-02-22T06:49:31.749Z,11.43
2023-02-22T06:52:34.615Z,11.54
2023-02-22T06:55:37.447Z,11.64
2023-02-22T06:58:40.242Z,11.86
2023-02-22T07:01:43.632Z,12.00
2023-02-22T07:04:46.543Z,12.13
2023-02-22T07:07:51.023Z,12.18
2023-02-22T07:10:53.912Z,12.37
2023-02-22T07:13:56.895Z,12.34
2023-02-22T07:16:59.710Z,12.40
2023-02-22T07:20:03.549Z,12.41
2023-02-22T07:23:06.413Z,12.49
2023-02-22T07:26:09.217Z,12.59
2023-02-22T07:29:11.991Z,12.60
2023-02-22T07:32:14.979Z,12.71
2023-02-22T07:35:20.361Z,12.87
2023-02-22T07:38:23.158Z,13.16
2023-02-22T07:41:26.154Z,13.40
2023-02-22T07:44:29.217Z,13.61
2023-02-22T07:47:32.019Z,13.81
2023-02-22T07:50:36.016Z,14.12
2023-02-22T07:53:38.856Z,14.59
2023-02-22T07:56:48.848Z,15.21
2023-02-22T07:59:51.770Z,16.71
2023-02-22T08:02:55.066Z,18.54
2023-02-22T08:06:00.615Z,19.74
2023-02-22T08:09:03.533Z,20.11
2023-02-22T08:12:06.992Z,21.33
2023-02-22T08:15:16.965Z,24.02
2023-02-22T08:18:21.966Z,25.47
2023-02-22T08:21:24.844Z,25.07
2023-02-22T08:24:27.680Z,26.09
2023-02-22T08:27:31.222Z,26.78
2023-02-22T08:30:35.481Z,26.95
2023-02-22T08:33:38.837Z,27.16
2023-02-22T08:36:42.650Z,27.51
2023-02-22T08:39:45.569Z,27.65
2023-02-22T08:42:48.385Z,27.15
2023-02-22T08:45:52.035Z,26.11
2023-02-22T08:48:55.084Z,24.55
2023-02-22T08:51:58.190Z,23.41
2023-02-22T08:55:01.868Z,22.87
2023-02-22T08:58:09.377Z,22.41
2023-02-22T09:01:14.030Z,22.38
2023-02-22T09:04:18.441Z,21.99
2023-02-22T09:07:21.361Z,21.79
2023-02-22T09:10:27.517Z,21.12
2023-02-22T09:13:30.345Z,20.53
2023-02-22T09:16:33.731Z,19.82
2023-02-22T09:19:36.655Z,19.27
2023-02-22T09:22:40.411Z,19.13
2023-02-22T09:25:43.372Z,19.12
2023-02-22T09:28:46.241Z,18.94
2023-02-22T09:31:50.753Z,18.82
2023-02-22T09:34:54.016Z,18.56
2023-02-22T09:37:58.766Z,18.20
2023-02-22T09:41:16.783Z,18.03
2023-02-22T09:44:41.231Z,18.04
2023-02-22T09:47:50.139Z,18.18
2023-02-22T09:50:59.043Z,17.89
2023-02-22T09:54:06.497Z,17.48
2023-02-22T09:57:16.211Z,17.11
2023-02-22T10:00:21.378Z,16.95
2023-02-22T10:03:44.884Z,16.91
2023-02-22T10:07:11.701Z,16.96
2023-02-22T10:10:18.649Z,17.00
2023-02-22T10:13:34.823Z,16.98
2023-02-22T10:16:47.507Z,17.19
2023-02-22T10:20:06.445Z,17.33
2023-02-22T10:23:23.890Z,17.41
2023-02-22T10:26:30.726Z,17.35
2023-02-22T10:29:41.574Z,17.29
2023-02-22T10:32:47.994Z,17.63
2023-02-22T10:35:52.684Z,17.50
2023-02-22T10:39:11.133Z,17.51
2023-02-22T10:42:14.342Z,17.42
2023-02-22T10:45:22.842Z,17.31
2023-02-22T10:48:26.818Z,17.13
2023-02-22T10:51:30.635Z,16.95
2023-02-22T10:54:41.035Z,16.67
2023-02-22T10:57:49.758Z,16.28
2023-02-22T11:00:52.660Z,15.82
2023-02-22T11:04:04.617Z,15.64
2023-02-22T11:07:09.351Z,15.54
2023-02-22T11:10:12.212Z,15.44
2023-02-22T11:13:18.892Z,15.29
2023-02-22T11:16:27.895Z,15.19
2023-02-22T11:19:33.848Z,15.17
2023-02-22T11:22:42.381Z,15.14
2023-02-22T11:25:45.424Z,15.22
2023-02-22T11:28:50.383Z,15.16
2023-02-22T11:31:54.915Z,15.17
2023-02-22T11:35:29.143Z,15.07
2023-02-22T11:38:34.313Z,14.96
2023-02-22T11:41:37.323Z,14.85
2023-02-22T11:44:44.015Z,14.79
2023-02-22T11:47:52.607Z,14.79
2023-02-22T11:51:16.801Z,14.78
2023-02-22T11:54:31.478Z,14.78
2023-02-22T11:57:34.769Z,14.57
2023-02-22T12:00:54.044Z,14.30
2023-02-22T12:04:23.923Z,14.14
2023-02-22T12:07:36.440Z,14.01
2023-02-22T12:10:57.848Z,14.03
2023-02-22T12:14:21.879Z,14.12
2023-02-22T12:17:48.152Z,13.81
2023-02-22T12:21:01.583Z,13.85
2023-02-22T12:24:14.340Z,13.74
2023-02-22T12:27:26.543Z,13.76
2023-02-22T12:30:38.773Z,13.77
2023-02-22T12:34:07.919Z,13.70
2023-02-22T12:38:01.829Z,13.95
2023-02-22T12:41:27.063Z,13.79
2023-02-22T12:44:37.287Z,13.80
2023-02-22T12:47:49.604Z,13.65
2023-02-22T12:50:58.448Z,13.68
2023-02-22T12:54:14.254Z,13.70
2023-02-22T12:57:42.410Z,13.77
2023-02-22T13:00:51.237Z,13.86
2023-02-22T13:03:55.849Z,13.95
2023-02-22T13:07:06.885Z,14.00
2023-02-22T13:10:20.445Z,13.86
2023-02-22T13:13:55.759Z,13.67
2023-02-22T13:17:06.846Z,13.51
2023-02-22T13:20:31.468Z,13.37
2023-02-22T13:23:46.217Z,13.51
2023-02-22T13:27:09.424Z,13.60
2023-02-22T13:30:30.352Z,13.63
2023-02-22T13:33:42.282Z,13.77
2023-02-22T13:36:48.843Z,13.96
2023-02-22T13:40:26.310Z,13.90
2023-02-22T13:44:01.410Z,13.67
2023-02-22T13:47:42.253Z,13.69
2023-02-22T13:51:09.668Z,13.77
2023-02-22T13:54:40.336Z,13.65
2023-02-22T13:57:49.913Z,13.44
2023-02-22T14:00:55.898Z,13.51
2023-02-22T14:04:23.698Z,13.65
2023-02-22T14:07:45.530Z,13.67
2023-02-22T14:10:59.562Z,13.63
2023-02-22T14:14:02.341Z,13.60
2023-02-22T14:17:22.193Z,13.51
2023-02-22T14:20:35.304Z,13.49
2023-02-22T14:23:49.048Z,13.57
2023-02-22T14:27:01.572Z,13.61
2023-02-22T14:30:05.684Z,13.47
2023-02-22T14:33:46.317Z,13.50
2023-02-22T14:37:07.713Z,13.59
2023-02-22T14:40:25.908Z,13.53
2023-02-22T14:43:29.425Z,13.50
2023-02-22T14:46:36.360Z,13.48
2023-02-22T14:49:45.313Z,13.62
2023-02-22T14:53:01.643Z,13.68
2023-02-22T14:56:08.667Z,13.45
2023-02-22T14:59:17.443Z,13.32
2023-02-22T15:02:22.837Z,13.25
2023-02-22T15:05:30.441Z,13.23
2023-02-22T15:08:34.475Z,13.28
2023-02-22T15:11:37.408Z,13.24
2023-02-22T15:14:41.824Z,13.39
2023-02-22T15:17:46.434Z,13.27
2023-02-22T15:20:56.371Z,13.29
2023-02-22T15:24:08.073Z,13.23
2023-02-22T15:27:19.537Z,13.23
2023-02-22T15:30:30.113Z,13.22
2023-02-22T15:33:38.143Z,13.22
2023-02-22T15:36:43.045Z,13.23
2023-02-22T15:39:46.034Z,13.23
2023-02-22T15:42:54.063Z,13.22
2023-02-22T15:45:58.253Z,13.20
2023-02-22T15:49:28.983Z,13.21
2023-02-22T15:52:31.943Z,13.19
2023-02-22T15:55:41.104Z,13.12
2023-02-22T15:58:46.869Z,13.12
2023-02-22T16:01:53.295Z,13.08
2023-02-22T16:05:00.776Z,13.06
2023-02-22T16:08:04.168Z,13.14
2023-02-22T16:11:30.148Z,13.11
2023-02-22T16:14:37.019Z,13.13
2023-02-22T16:17:55.904Z,12.98
2023-02-22T16:21:13.056Z,13.02
2023-02-22T16:24:27.349Z,12.92
2023-02-22T16:27:30.222Z,12.87
2023-02-22T16:30:39.428Z,12.86
2023-02-22T16:33:44.432Z,12.80
2023-02-22T16:36:51.700Z,12.77
2023-02-22T16:39:55.475Z,12.71
2023-02-22T16:43:00.927Z,12.68
2023-02-22T16:46:06.953Z,12.64
2023-02-22T16:49:12.206Z,12.59
2023-02-22T16:52:15.326Z,12.62
2023-02-22T16:55:20.423Z,12.52
2023-02-22T16:58:27.928Z,12.48
2023-02-22T17:01:35.154Z,12.46
2023-02-22T17:04:39.629Z,12.41
2023-02-22T17:07:43.082Z,12.42
2023-02-22T17:10:46.454Z,12.38
2023-02-22T17:13:52.138Z,12.32
2023-02-22T17:16:54.923Z,12.31
2023-02-22T17:19:57.717Z,12.26
2023-02-22T17:23:06.484Z,12.22
2023-02-22T17:26:09.366Z,12.17
2023-02-22T17:29:13.761Z,12.14
2023-02-22T17:32:16.734Z,12.11
2023-02-22T17:35:23.245Z,12.08
2023-02-22T17:38:29.048Z,12.07
2023-02-22T17:41:32.078Z,12.08
2023-02-22T17:44:35.346Z,12.02
2023-02-22T17:47:39.033Z,11.97
2023-02-22T17:50:43.761Z,11.93
2023-02-22T17:53:47.026Z,11.89
2023-02-22T17:56:50.046Z,11.84
2023-02-22T17:59:53.325Z,11.85
2023-02-22T18:03:01.337Z,11.80
2023-02-22T18:06:06.002Z,11.77
2023-02-22T18:09:10.935Z,11.75
2023-02-22T18:12:14.322Z,11.76
2023-02-22T18:15:19.602Z,11.72
2023-02-22T18:18:23.121Z,11.65
2023-02-22T18:21:26.860Z,11.60
2023-02-22T18:24:36.506Z,11.56
2023-02-22T18:27:39.538Z,11.56
2023-02-22T18:30:42.742Z,11.51
2023-02-22T18:33:47.538Z,11.46
2023-02-22T18:36:54.733Z,11.40
2023-02-22T18:39:58.212Z,11.37
2023-02-22T18:43:01.363Z,11.32
2023-02-22T18:46:18.947Z,11.26
2023-02-22T18:49:22.259Z,11.23
2023-02-22T18:52:24.777Z,11.24
2023-02-22T18:55:27.871Z,11.19
2023-02-22T18:58:32.775Z,11.16
2023-02-22T19:01:38.803Z,11.10
2023-02-22T19:04:44.133Z,11.04
2023-02-22T19:07:47.784Z,10.99
2023-02-22T19:10:50.541Z,10.96
2023-02-22T19:13:57.644Z,10.97
2023-02-22T19:17:02.809Z,11.00
2023-02-22T19:20:07.343Z,11.02
2023-02-22T19:23:10.510Z,11.02
2023-02-22T19:26:20.011Z,11.02
2023-02-22T19:29:23.884Z,11.08
2023-02-22T19:32:27.173Z,11.11
2023-02-22T19:35:30.092Z,11.09
2023-02-22T19:38:33.434Z,11.10
2023-02-22T19:41:36.505Z,11.17
2023-02-22T19:44:39.838Z,11.13
2023-02-22T19:47:42.490Z,11.12
2023-02-22T19:50:49.439Z,11.11
2023-02-22T19:53:53.077Z,11.21
2023-02-22T19:56:58.077Z,11.23
2023-02-22T20:00:10.901Z,11.12
2023-02-22T20:03:15.678Z,11.10
2023-02-22T20:06:18.583Z,11.19
2023-02-22T20:09:27.689Z,11.20
2023-02-22T20:12:30.722Z,11.07
2023-02-22T20:15:34.440Z,11.17
2023-02-22T20:18:37.277Z,11.17
2023-02-22T20:21:40.449Z,11.02
2023-02-22T20:24:43.342Z,10.96
2023-02-22T20:27:46.727Z,10.99
2023-02-22T20:30:51.489Z,11.03
2023-02-22T20:33:56.492Z,10.98
2023-02-22T20:37:00.554Z,10.89
2023-02-22T20:40:05.248Z,10.93
2023-02-22T20:43:08.508Z,11.00
2023-02-22T20:46:11.386Z,11.04
2023-02-22T20:49:17.711Z,10.99
2023-02-22T20:52:39.336Z,10.97
2023-02-22T20:55:51.675Z,10.87
2023-02-22T20:59:00.488Z,10.85
2023-02-22T21:02:03.460Z,10.79
2023-02-22T21:05:25.546Z,10.74
2023-02-22T21:08:28.455Z,10.80
2023-02-22T21:11:31.993Z,10.69
2023-02-22T21:14:34.994Z,10.67
2023-02-22T21:17:37.956Z,10.71
2023-02-22T21:20:43.274Z,10.72
2023-02-22T21:23:50.265Z,10.67
2023-02-22T21:26:53.598Z,10.72
2023-02-22T21:29:58.604Z,10.74
2023-02-22T21:33:02.233Z,10.64
2023-02-22T21:36:15.866Z,10.60
2023-02-22T21:39:19.201Z,10.64
2023-02-22T21:42:21.962Z,10.65
2023-02-22T21:45:26.148Z,10.60
2023-02-22T21:48:29.527Z,10.80
2023-02-22T21:51:32.912Z,10.75
2023-02-22T21:54:35.928Z,10.61
2023-02-22T21:57:38.828Z,10.56
2023-02-22T22:00:44.935Z,10.62
2023-02-22T22:03:48.296Z,10.65
2023-02-22T22:06:53.728Z,10.59
2023-02-22T22:09:56.927Z,10.57
2023-02-22T22:13:00.201Z,10.53
2023-02-22T22:16:05.932Z,10.57
2023-02-22T22:19:09.192Z,10.50
2023-02-22T22:22:12.841Z,10.53
2023-02-22T22:25:18.964Z,10.57
2023-02-22T22:28:21.765Z,10.51
2023-02-22T22:31:26.458Z,10.45
2023-02-22T22:34:29.552Z,10.52
2023-02-22T22:37:32.420Z,10.50
2023-02-22T22:40:35.568Z,10.57
2023-02-22T22:43:38.459Z,10.56
2023-02-22T22:46:41.683Z,10.53
2023-02-22T22:49:45.425Z,10.51
2023-02-22T22:52:49.035Z,10.47
2023-02-22T22:55:51.832Z,10.47
2023-02-22T22:58:56.944Z,10.50
2023-02-22T23:02:02.946Z,10.50
2023-02-22T23:05:08.275Z,10.33
2023-02-22T23:08:12.897Z,10.33
2023-02-22T23:11:16.519Z,10.30
2023-02-22T23:14:32.826Z,10.30
2023-02-22T23:17:42.433Z,10.37
2023-02-22T23:20:45.275Z,10.27
2023-02-22T23:23:51.616Z,10.30
2023-02-22T23:26:59.941Z,10.26
2023-02-22T23:30:02.957Z,10.17
2023-02-22T23:33:05.783Z,10.17
2023-02-22T23:36:11.178Z,10.19
2023-02-22T23:39:15.477Z,10.12
2023-02-22T23:42:18.361Z,10.07
2023-02-22T23:45:24.755Z,10.11
2023-02-22T23:48:30.074Z,10.10
2023-02-22T23:51:39.349Z,10.05
2023-02-22T23:54:46.494Z,10.06
2023-02-22T23:57:49.313Z,10.22
